sensor_id;sensor_type;location;lat;lon;timestamp;pressure;altitude;pressure_sealevel;temperature;humidity
9189;BME280;34313;50.780;6.084;2023-06-22T00:01:27;99737.88;;;20.38;69.69
9189;BME280;34313;50.780;6.084;2023-06-22T00:03:52;99733.94;;;20.33;70.09
9189;BME280;34313;50.780;6.084;2023-06-22T00:06:18;99738.19;;;20.26;70.36
9189;BME280;34313;50.780;6.084;2023-06-22T00:08:43;99740.63;;;20.19;70.64
9189;BME280;34313;50.780;6.084;2023-06-22T00:11:08;99736.97;;;20.20;70.52
9189;BME280;34313;50.780;6.084;2023-06-22T00:13:34;99734.00;;;20.13;70.55
9189;BME280;34313;50.780;6.084;2023-06-22T00:15:59;99731.75;;;20.09;70.80
9189;BME280;34313;50.780;6.084;2023-06-22T00:18:24;99741.34;;;20.11;71.04
9189;BME280;34313;50.780;6.084;2023-06-22T00:20:54;99738.78;;;20.19;70.77
9189;BME280;34313;50.780;6.084;2023-06-22T00:23:22;99729.78;;;20.11;71.19
9189;BME280;34313;50.780;6.084;2023-06-22T00:25:49;99735.19;;;20.01;71.57
9189;BME280;34313;50.780;6.084;2023-06-22T00:28:14;99730.38;;;19.95;71.92
9189;BME280;34313;50.780;6.084;2023-06-22T00:30:39;99735.75;;;19.95;71.81
9189;BME280;34313;50.780;6.084;2023-06-22T00:33:05;99729.84;;;19.91;71.99
9189;BME280;34313;50.780;6.084;2023-06-22T00:35:33;99723.78;;;19.99;71.46
9189;BME280;34313;50.780;6.084;2023-06-22T00:37:59;99719.84;;;19.93;71.48
9189;BME280;34313;50.780;6.084;2023-06-22T00:40:31;99730.69;;;19.92;71.97
9189;BME280;34313;50.780;6.084;2023-06-22T00:42:57;99721.81;;;19.91;71.81
9189;BME280;34313;50.780;6.084;2023-06-22T00:45:23;99721.94;;;19.99;71.67
9189;BME280;34313;50.780;6.084;2023-06-22T00:47:50;99716.03;;;19.96;71.84
9189;BME280;34313;50.780;6.084;2023-06-22T00:50:19;99713.78;;;20.01;71.72
9189;BME280;34313;50.780;6.084;2023-06-22T00:52:48;99707.13;;;20.05;70.80
9189;BME280;34313;50.780;6.084;2023-06-22T00:55:16;99717.13;;;20.13;70.89
9189;BME280;34313;50.780;6.084;2023-06-22T00:57:44;99707.00;;;20.07;70.68
9189;BME280;34313;50.780;6.084;2023-06-22T01:00:11;99704.59;;;20.13;69.95
9189;BME280;34313;50.780;6.084;2023-06-22T01:02:41;99699.78;;;20.17;69.84
9189;BME280;34313;50.780;6.084;2023-06-22T01:05:09;99703.00;;;20.20;69.67
9189;BME280;34313;50.780;6.084;2023-06-22T01:07:44;99692.72;;;20.16;69.47
9189;BME280;34313;50.780;6.084;2023-06-22T01:10:21;99701.63;;;20.16;69.60
9189;BME280;34313;50.780;6.084;2023-06-22T01:12:56;99692.03;;;20.14;70.17
9189;BME280;34313;50.780;6.084;2023-06-22T01:15:33;99686.00;;;20.02;70.75
9189;BME280;34313;50.780;6.084;2023-06-22T01:18:00;99684.22;;;19.93;71.29
9189;BME280;34313;50.780;6.084;2023-06-22T01:20:29;99675.50;;;20.00;70.86
9189;BME280;34313;50.780;6.084;2023-06-22T01:23:11;99682.41;;;19.93;71.18
9189;BME280;34313;50.780;6.084;2023-06-22T01:25:57;99685.66;;;19.87;71.54
9189;BME280;34313;50.780;6.084;2023-06-22T01:28:46;99678.91;;;19.83;71.89
9189;BME280;34313;50.780;6.084;2023-06-22T01:31:16;99686.22;;;19.81;71.94
9189;BME280;34313;50.780;6.084;2023-06-22T01:33:44;99680.44;;;19.86;71.30
9189;BME280;34313;50.780;6.084;2023-06-22T01:36:12;99682.50;;;20.01;70.54
9189;BME280;34313;50.780;6.084;2023-06-22T01:38:39;99680.28;;;19.97;70.53
9189;BME280;34313;50.780;6.084;2023-06-22T01:41:04;99672.41;;;19.95;70.16
9189;BME280;34313;50.780;6.084;2023-06-22T01:43:31;99677.63;;;19.97;70.67
9189;BME280;34313;50.780;6.084;2023-06-22T01:45:59;99679.13;;;19.99;70.28
9189;BME280;34313;50.780;6.084;2023-06-22T01:48:25;99669.47;;;19.89;70.39
9189;BME280;34313;50.780;6.084;2023-06-22T01:50:52;99676.06;;;19.94;70.30
9189;BME280;34313;50.780;6.084;2023-06-22T01:53:17;99666.44;;;20.01;69.68
9189;BME280;34313;50.780;6.084;2023-06-22T01:55:43;99671.66;;;20.03;69.88
9189;BME280;34313;50.780;6.084;2023-06-22T01:58:08;99676.88;;;20.05;69.80
9189;BME280;34313;50.780;6.084;2023-06-22T02:00:37;99668.00;;;20.04;69.62
9189;BME280;34313;50.780;6.084;2023-06-22T02:03:08;99662.34;;;20.07;69.20
9189;BME280;34313;50.780;6.084;2023-06-22T02:05:46;99661.94;;;20.02;69.61
9189;BME280;34313;50.780;6.084;2023-06-22T02:08:20;99664.47;;;20.03;69.47
9189;BME280;34313;50.780;6.084;2023-06-22T02:10:47;99659.72;;;19.97;69.69
9189;BME280;34313;50.780;6.084;2023-06-22T02:13:14;99662.69;;;19.94;70.02
9189;BME280;34313;50.780;6.084;2023-06-22T02:15:40;99665.00;;;20.07;69.54
9189;BME280;34313;50.780;6.084;2023-06-22T02:18:05;99661.56;;;19.97;70.02
9189;BME280;34313;50.780;6.084;2023-06-22T02:20:31;99661.69;;;19.95;70.17
9189;BME280;34313;50.780;6.084;2023-06-22T02:22:56;99653.75;;;20.03;70.02
9189;BME280;34313;50.780;6.084;2023-06-22T02:25:22;99656.03;;;19.98;70.26
9189;BME280;34313;50.780;6.084;2023-06-22T02:27:47;99658.63;;;19.90;70.91
9189;BME280;34313;50.780;6.084;2023-06-22T02:30:13;99646.50;;;19.86;71.23
9189;BME280;34313;50.780;6.084;2023-06-22T02:32:40;99650.75;;;19.89;71.29
9189;BME280;34313;50.780;6.084;2023-06-22T02:35:11;99647.31;;;19.96;71.12
9189;BME280;34313;50.780;6.084;2023-06-22T02:37:37;99639.19;;;19.88;71.21
9189;BME280;34313;50.780;6.084;2023-06-22T02:40:09;99643.41;;;19.81;71.66
9189;BME280;34313;50.780;6.084;2023-06-22T02:42:36;99645.66;;;19.86;71.59
9189;BME280;34313;50.780;6.084;2023-06-22T02:45:01;99644.00;;;19.85;71.53
9189;BME280;34313;50.780;6.084;2023-06-22T02:47:27;99642.88;;;19.77;71.84
9189;BME280;34313;50.780;6.084;2023-06-22T02:49:52;99632.16;;;19.77;72.07
9189;BME280;34313;50.780;6.084;2023-06-22T02:52:18;99629.34;;;19.79;71.97
9189;BME280;34313;50.780;6.084;2023-06-22T02:54:43;99630.38;;;19.78;72.10
9189;BME280;34313;50.780;6.084;2023-06-22T02:57:10;99619.22;;;19.73;72.27
9189;BME280;34313;50.780;6.084;2023-06-22T02:59:39;99621.66;;;19.76;72.46
9189;BME280;34313;50.780;6.084;2023-06-22T03:02:06;99617.25;;;19.85;72.11
9189;BME280;34313;50.780;6.084;2023-06-22T03:04:31;99613.44;;;19.77;72.49
9189;BME280;34313;50.780;6.084;2023-06-22T03:06:56;99603.47;;;19.79;72.58
9189;BME280;34313;50.780;6.084;2023-06-22T03:09:26;99589.69;;;19.74;72.65
9189;BME280;34313;50.780;6.084;2023-06-22T03:11:52;99580.09;;;19.72;73.06
9189;BME280;34313;50.780;6.084;2023-06-22T03:14:18;99579.41;;;19.70;73.17
9189;BME280;34313;50.780;6.084;2023-06-22T03:16:43;99585.28;;;19.73;73.09
9189;BME280;34313;50.780;6.084;2023-06-22T03:19:08;99585.88;;;19.77;72.88
9189;BME280;34313;50.780;6.084;2023-06-22T03:21:34;99589.94;;;19.71;73.06
9189;BME280;34313;50.780;6.084;2023-06-22T03:23:59;99585.91;;;19.67;73.63
9189;BME280;34313;50.780;6.084;2023-06-22T03:26:24;99588.97;;;19.72;73.49
9189;BME280;34313;50.780;6.084;2023-06-22T03:28:52;99587.16;;;19.63;73.94
9189;BME280;34313;50.780;6.084;2023-06-22T03:31:17;99591.41;;;19.56;74.34
9189;BME280;34313;50.780;6.084;2023-06-22T03:33:46;99581.84;;;19.53;74.58
9189;BME280;34313;50.780;6.084;2023-06-22T03:36:12;99589.41;;;19.58;74.81
9189;BME280;34313;50.780;6.084;2023-06-22T03:38:37;99579.88;;;19.55;75.02
9189;BME280;34313;50.780;6.084;2023-06-22T03:41:03;99592.78;;;19.60;74.97
9189;BME280;34313;50.780;6.084;2023-06-22T03:43:28;99589.00;;;19.62;74.60
9189;BME280;34313;50.780;6.084;2023-06-22T03:45:53;99599.41;;;19.65;74.57
9189;BME280;34313;50.780;6.084;2023-06-22T03:48:18;99595.13;;;19.82;73.70
9189;BME280;34313;50.780;6.084;2023-06-22T03:50:44;99597.28;;;19.69;74.12
9189;BME280;34313;50.780;6.084;2023-06-22T03:53:09;99599.66;;;19.72;74.10
9189;BME280;34313;50.780;6.084;2023-06-22T03:55:35;99594.72;;;19.77;73.97
9189;BME280;34313;50.780;6.084;2023-06-22T03:58:01;99590.66;;;19.83;73.80
9189;BME280;34313;50.780;6.084;2023-06-22T04:00:33;99604.16;;;19.81;73.83
9189;BME280;34313;50.780;6.084;2023-06-22T04:02:58;99612.59;;;19.87;73.58
9189;BME280;34313;50.780;6.084;2023-06-22T04:05:24;99610.19;;;19.93;73.33
9189;BME280;34313;50.780;6.084;2023-06-22T04:07:49;99607.00;;;19.80;73.86
9189;BME280;34313;50.780;6.084;2023-06-22T04:10:15;99603.44;;;19.89;73.65
9189;BME280;34313;50.780;6.084;2023-06-22T04:12:40;99598.28;;;19.78;74.18
9189;BME280;34313;50.780;6.084;2023-06-22T04:15:06;99607.13;;;19.78;74.37
9189;BME280;34313;50.780;6.084;2023-06-22T04:17:31;99610.22;;;19.83;74.43
9189;BME280;34313;50.780;6.084;2023-06-22T04:19:56;99617.19;;;19.94;74.05
9189;BME280;34313;50.780;6.084;2023-06-22T04:22:22;99622.19;;;20.17;72.88
9189;BME280;34313;50.780;6.084;2023-06-22T04:24:47;99611.66;;;20.33;71.88
9189;BME280;34313;50.780;6.084;2023-06-22T04:27:12;99621.09;;;20.37;71.67
9189;BME280;34313;50.780;6.084;2023-06-22T04:29:37;99617.81;;;20.44;71.50
9189;BME280;34313;50.780;6.084;2023-06-22T04:32:03;99605.81;;;20.48;71.59
9189;BME280;34313;50.780;6.084;2023-06-22T04:34:30;99610.84;;;20.51;71.12
9189;BME280;34313;50.780;6.084;2023-06-22T04:36:56;99612.88;;;20.67;70.91
9189;BME280;34313;50.780;6.084;2023-06-22T04:39:21;99606.31;;;20.79;70.60
9189;BME280;34313;50.780;6.084;2023-06-22T04:41:47;99608.25;;;20.87;70.10
9189;BME280;34313;50.780;6.084;2023-06-22T04:44:16;99611.47;;;20.90;70.23
9189;BME280;34313;50.780;6.084;2023-06-22T04:46:49;99603.97;;;20.94;70.13
9189;BME280;34313;50.780;6.084;2023-06-22T04:49:19;99613.06;;;21.01;70.04
9189;BME280;34313;50.780;6.084;2023-06-22T04:51:45;99600.56;;;21.10;69.80
9189;BME280;34313;50.780;6.084;2023-06-22T04:54:10;99604.84;;;21.21;69.32
9189;BME280;34313;50.780;6.084;2023-06-22T04:56:36;99607.75;;;21.27;68.97
9189;BME280;34313;50.780;6.084;2023-06-22T04:59:02;99609.97;;;21.32;68.92
9189;BME280;34313;50.780;6.084;2023-06-22T05:01:30;99603.44;;;21.34;68.84
9189;BME280;34313;50.780;6.084;2023-06-22T05:03:57;99594.72;;;21.32;68.86
9189;BME280;34313;50.780;6.084;2023-06-22T05:06:23;99593.50;;;21.27;68.99
9189;BME280;34313;50.780;6.084;2023-06-22T05:08:53;99599.84;;;21.26;69.14
9189;BME280;34313;50.780;6.084;2023-06-22T05:11:18;99601.50;;;21.01;70.08
9189;BME280;34313;50.780;6.084;2023-06-22T05:13:43;99608.16;;;20.96;70.46
9189;BME280;34313;50.780;6.084;2023-06-22T05:16:09;99608.94;;;20.89;71.04
9189;BME280;34313;50.780;6.084;2023-06-22T05:18:34;99605.41;;;20.88;71.35
9189;BME280;34313;50.780;6.084;2023-06-22T05:21:00;99607.47;;;20.94;70.95
9189;BME280;34313;50.780;6.084;2023-06-22T05:23:25;99603.66;;;20.97;71.16
9189;BME280;34313;50.780;6.084;2023-06-22T05:25:51;99603.31;;;21.00;71.39
9189;BME280;34313;50.780;6.084;2023-06-22T05:28:16;99597.44;;;20.96;71.75
9189;BME280;34313;50.780;6.084;2023-06-22T05:30:41;99601.50;;;21.01;71.65
9189;BME280;34313;50.780;6.084;2023-06-22T05:33:07;99600.72;;;21.08;71.52
9189;BME280;34313;50.780;6.084;2023-06-22T05:35:32;99594.03;;;21.12;71.53
9189;BME280;34313;50.780;6.084;2023-06-22T05:37:57;99600.56;;;21.10;71.76
9189;BME280;34313;50.780;6.084;2023-06-22T05:40:23;99605.09;;;21.09;71.93
9189;BME280;34313;50.780;6.084;2023-06-22T05:42:48;99600.56;;;21.10;72.05
9189;BME280;34313;50.780;6.084;2023-06-22T05:45:13;99604.94;;;21.11;72.45
9189;BME280;34313;50.780;6.084;2023-06-22T05:47:38;99605.31;;;21.16;72.33
9189;BME280;34313;50.780;6.084;2023-06-22T05:50:05;99610.88;;;21.23;72.11
9189;BME280;34313;50.780;6.084;2023-06-22T05:52:34;99616.34;;;21.13;72.32
9189;BME280;34313;50.780;6.084;2023-06-22T05:54:59;99607.09;;;21.07;72.70
9189;BME280;34313;50.780;6.084;2023-06-22T05:57:24;99606.00;;;21.18;72.53
9189;BME280;34313;50.780;6.084;2023-06-22T05:59:51;99615.63;;;21.29;72.38
9189;BME280;34313;50.780;6.084;2023-06-22T06:02:16;99612.31;;;21.35;71.77
9189;BME280;34313;50.780;6.084;2023-06-22T06:04:42;99613.06;;;21.45;71.71
9189;BME280;34313;50.780;6.084;2023-06-22T06:07:07;99614.47;;;21.49;71.45
9189;BME280;34313;50.780;6.084;2023-06-22T06:09:32;99620.22;;;21.55;71.39
9189;BME280;34313;50.780;6.084;2023-06-22T06:11:57;99618.16;;;21.75;70.92
9189;BME280;34313;50.780;6.084;2023-06-22T06:14:23;99623.13;;;21.96;70.04
9189;BME280;34313;50.780;6.084;2023-06-22T06:16:49;99619.13;;;22.00;69.26
9189;BME280;34313;50.780;6.084;2023-06-22T06:19:14;99622.25;;;22.21;68.71
9189;BME280;34313;50.780;6.084;2023-06-22T06:21:40;99620.47;;;22.38;67.78
9189;BME280;34313;50.780;6.084;2023-06-22T06:24:05;99624.38;;;22.52;67.39
9189;BME280;34313;50.780;6.084;2023-06-22T06:26:31;99620.91;;;22.60;67.24
9189;BME280;34313;50.780;6.084;2023-06-22T06:28:59;99622.06;;;22.74;66.70
9189;BME280;34313;50.780;6.084;2023-06-22T06:31:25;99627.50;;;22.90;66.55
9189;BME280;34313;50.780;6.084;2023-06-22T06:33:54;99619.56;;;22.80;65.89
9189;BME280;34313;50.780;6.084;2023-06-22T06:36:19;99618.75;;;22.88;66.10
9189;BME280;34313;50.780;6.084;2023-06-22T06:38:44;99605.16;;;22.98;65.85
9189;BME280;34313;50.780;6.084;2023-06-22T06:41:12;99603.34;;;23.07;65.32
9189;BME280;34313;50.780;6.084;2023-06-22T06:43:37;99608.88;;;23.13;65.20
9189;BME280;34313;50.780;6.084;2023-06-22T06:46:03;99595.13;;;23.16;64.48
9189;BME280;34313;50.780;6.084;2023-06-22T06:48:28;99595.28;;;23.15;65.18
9189;BME280;34313;50.780;6.084;2023-06-22T06:50:53;99598.31;;;23.28;65.13
9189;BME280;34313;50.780;6.084;2023-06-22T06:53:19;99592.53;;;23.64;64.55
9189;BME280;34313;50.780;6.084;2023-06-22T06:55:44;99585.28;;;23.81;62.77
9189;BME280;34313;50.780;6.084;2023-06-22T06:58:10;99583.00;;;24.41;61.14
9189;BME280;34313;50.780;6.084;2023-06-22T07:00:38;99564.19;;;25.48;58.27
9189;BME280;34313;50.780;6.084;2023-06-22T07:03:04;99556.03;;;26.74;53.78
9189;BME280;34313;50.780;6.084;2023-06-22T07:05:30;99546.38;;;28.88;48.38
9189;BME280;34313;50.780;6.084;2023-06-22T07:07:55;99545.09;;;30.61;43.65
9189;BME280;34313;50.780;6.084;2023-06-22T07:10:21;99544.09;;;33.02;39.36
9189;BME280;34313;50.780;6.084;2023-06-22T07:12:46;99541.66;;;34.12;36.19
9189;BME280;34313;50.780;6.084;2023-06-22T07:15:11;99538.09;;;33.24;36.82
9189;BME280;34313;50.780;6.084;2023-06-22T07:17:38;99542.94;;;32.98;36.55
9189;BME280;34313;50.780;6.084;2023-06-22T07:20:06;99525.47;;;31.16;39.20
9189;BME280;34313;50.780;6.084;2023-06-22T07:22:39;99522.22;;;29.98;41.39
9189;BME280;34313;50.780;6.084;2023-06-22T07:25:05;99523.13;;;29.65;42.40
9189;BME280;34313;50.780;6.084;2023-06-22T07:27:38;99521.03;;;29.67;42.34
9189;BME280;34313;50.780;6.084;2023-06-22T07:30:05;99509.50;;;29.92;41.64
9189;BME280;34313;50.780;6.084;2023-06-22T07:32:31;99506.19;;;29.76;41.98
9189;BME280;34313;50.780;6.084;2023-06-22T07:35:02;99507.75;;;28.65;44.06
9189;BME280;34313;50.780;6.084;2023-06-22T07:37:28;99500.41;;;27.84;46.40
9189;BME280;34313;50.780;6.084;2023-06-22T07:40:00;99472.09;;;28.75;44.58
9189;BME280;34313;50.780;6.084;2023-06-22T07:42:28;99497.22;;;31.54;39.51
9189;BME280;34313;50.780;6.084;2023-06-22T07:44:57;99504.81;;;31.52;38.30
9189;BME280;34313;50.780;6.084;2023-06-22T07:47:39;99499.59;;;31.69;37.57
9189;BME280;34313;50.780;6.084;2023-06-22T07:53:58;99479.97;;;30.98;38.93
9189;BME280;34313;50.780;6.084;2023-06-22T07:56:46;99471.97;;;30.52;39.79
9189;BME280;34313;50.780;6.084;2023-06-22T07:59:30;99452.72;;;29.70;41.30
9189;BME280;34313;50.780;6.084;2023-06-22T08:05:17;99447.84;;;28.54;44.86
9189;BME280;34313;50.780;6.084;2023-06-22T08:07:43;99452.03;;;29.10;44.45
9189;BME280;34313;50.780;6.084;2023-06-22T08:13:52;99446.81;;;29.87;42.80
9189;BME280;34313;50.780;6.084;2023-06-22T08:16:32;99462.16;;;31.02;41.10
9189;BME280;34313;50.780;6.084;2023-06-22T08:19:01;99445.63;;;32.50;38.07
9189;BME280;34313;50.780;6.084;2023-06-22T08:21:47;99474.41;;;32.76;37.27
9189;BME280;34313;50.780;6.084;2023-06-22T08:24:18;99475.00;;;31.75;38.74
9189;BME280;34313;50.780;6.084;2023-06-22T08:26:54;99453.00;;;30.39;41.81
9189;BME280;34313;50.780;6.084;2023-06-22T08:29:27;99464.59;;;29.83;43.22
9189;BME280;34313;50.780;6.084;2023-06-22T08:31:55;99440.44;;;31.14;40.91
9189;BME280;34313;50.780;6.084;2023-06-22T08:34:44;99427.41;;;32.97;37.61
9189;BME280;34313;50.780;6.084;2023-06-22T08:37:29;99458.66;;;33.89;36.03
9189;BME280;34313;50.780;6.084;2023-06-22T08:40:14;99421.34;;;34.12;35.49
9189;BME280;34313;50.780;6.084;2023-06-22T08:43:04;99411.34;;;34.52;34.69
9189;BME280;34313;50.780;6.084;2023-06-22T08:45:55;99433.31;;;35.25;33.77
9189;BME280;34313;50.780;6.084;2023-06-22T08:48:41;99428.28;;;35.83;32.87
9189;BME280;34313;50.780;6.084;2023-06-22T08:54:42;99414.31;;;37.92;29.31
9189;BME280;34313;50.780;6.084;2023-06-22T08:57:18;99435.84;;;37.37;30.21
9189;BME280;34313;50.780;6.084;2023-06-22T08:59:49;99433.06;;;35.97;31.70
9189;BME280;34313;50.780;6.084;2023-06-22T09:02:29;99408.94;;;34.21;34.40
9189;BME280;34313;50.780;6.084;2023-06-22T09:05:33;99385.41;;;32.87;37.12
9189;BME280;34313;50.780;6.084;2023-06-22T09:08:24;99414.63;;;32.20;38.43
9189;BME280;34313;50.780;6.084;2023-06-22T09:11:04;99396.84;;;32.18;38.73
9189;BME280;34313;50.780;6.084;2023-06-22T09:13:53;99386.38;;;30.23;42.85
9189;BME280;34313;50.780;6.084;2023-06-22T09:16:55;99380.28;;;29.96;43.60
9189;BME280;34313;50.780;6.084;2023-06-22T09:19:30;99366.47;;;29.00;45.71
9189;BME280;34313;50.780;6.084;2023-06-22T09:22:32;99371.13;;;28.33;47.59
9189;BME280;34313;50.780;6.084;2023-06-22T09:25:41;99377.06;;;27.82;49.56
9189;BME280;34313;50.780;6.084;2023-06-22T09:28:58;99375.63;;;27.31;50.96
9189;BME280;34313;50.780;6.084;2023-06-22T09:32:09;99403.03;;;26.58;53.84
9189;BME280;34313;50.780;6.084;2023-06-22T09:34:55;99394.03;;;26.29;55.27
9189;BME280;34313;50.780;6.084;2023-06-22T09:38:11;99384.06;;;26.08;55.97
9189;BME280;34313;50.780;6.084;2023-06-22T09:41:12;99444.91;;;26.26;56.50
9189;BME280;34313;50.780;6.084;2023-06-22T09:44:15;99458.03;;;26.07;57.29
9189;BME280;34313;50.780;6.084;2023-06-22T09:47:44;99498.91;;;25.89;58.33
9189;BME280;34313;50.780;6.084;2023-06-22T09:54:28;99489.31;;;25.12;60.80
9189;BME280;34313;50.780;6.084;2023-06-22T09:57:20;99486.78;;;24.96;63.07
9189;BME280;34313;50.780;6.084;2023-06-22T10:03:48;99509.56;;;24.70;71.13
9189;BME280;34313;50.780;6.084;2023-06-22T10:07:22;99491.03;;;24.21;71.41
9189;BME280;34313;50.780;6.084;2023-06-22T10:17:02;99500.97;;;23.41;80.07
9189;BME280;34313;50.780;6.084;2023-06-22T10:25:21;99487.41;;;22.85;87.76
9189;BME280;34313;50.780;6.084;2023-06-22T10:28:05;99482.38;;;22.57;89.61
9189;BME280;34313;50.780;6.084;2023-06-22T10:31:29;99477.34;;;22.62;92.10
9189;BME280;34313;50.780;6.084;2023-06-22T10:34:38;99441.91;;;22.51;95.72
9189;BME280;34313;50.780;6.084;2023-06-22T10:37:49;99426.66;;;22.51;97.50
9189;BME280;34313;50.780;6.084;2023-06-22T10:44:30;99431.06;;;23.33;94.48
9189;BME280;34313;50.780;6.084;2023-06-22T10:50:37;99391.44;;;23.89;90.97
9189;BME280;34313;50.780;6.084;2023-06-22T11:03:35;99383.75;;;24.70;84.43
9189;BME280;34313;50.780;6.084;2023-06-22T11:06:05;99368.88;;;24.75;84.08
9189;BME280;34313;50.780;6.084;2023-06-22T11:08:50;99333.03;;;25.04;83.75
9189;BME280;34313;50.780;6.084;2023-06-22T11:11:49;99346.22;;;25.28;83.42
9189;BME280;34313;50.780;6.084;2023-06-22T11:17:17;99299.91;;;26.04;78.96
9189;BME280;34313;50.780;6.084;2023-06-22T11:19:59;99306.69;;;25.57;78.20
9189;BME280;34313;50.780;6.084;2023-06-22T11:22:33;99284.09;;;25.58;78.43
9189;BME280;34313;50.780;6.084;2023-06-22T11:27:54;99297.66;;;26.65;74.11
9189;BME280;34313;50.780;6.084;2023-06-22T11:30:40;99307.53;;;26.86;72.35
9189;BME280;34313;50.780;6.084;2023-06-22T11:33:32;99331.84;;;27.14;71.57
9189;BME280;34313;50.780;6.084;2023-06-22T11:36:12;99307.66;;;27.61;70.83
9189;BME280;34313;50.780;6.084;2023-06-22T11:38:45;99304.81;;;27.96;68.76
9189;BME280;34313;50.780;6.084;2023-06-22T11:41:20;99299.53;;;27.61;66.87
9189;BME280;34313;50.780;6.084;2023-06-22T11:43:46;99286.06;;;27.12;66.77
9189;BME280;34313;50.780;6.084;2023-06-22T11:46:49;99268.47;;;27.43;66.66
9189;BME280;34313;50.780;6.084;2023-06-22T11:49:18;99273.22;;;27.28;65.82
9189;BME280;34313;50.780;6.084;2023-06-22T11:52:17;99282.53;;;27.94;64.80
9189;BME280;34313;50.780;6.084;2023-06-22T11:54:55;99284.59;;;28.12;64.16
9189;BME280;34313;50.780;6.084;2023-06-22T11:57:23;99266.38;;;27.32;64.70
9189;BME280;34313;50.780;6.084;2023-06-22T12:00:08;99248.06;;;26.86;66.38
9189;BME280;34313;50.780;6.084;2023-06-22T12:02:44;99251.25;;;26.61;68.09
9189;BME280;34313;50.780;6.084;2023-06-22T12:05:32;99253.66;;;26.77;69.36
9189;BME280;34313;50.780;6.084;2023-06-22T12:07:58;99246.69;;;27.10;68.32
9189;BME280;34313;50.780;6.084;2023-06-22T12:10:26;99252.31;;;27.08;67.64
9189;BME280;34313;50.780;6.084;2023-06-22T12:13:24;99265.56;;;26.90;67.77
9189;BME280;34313;50.780;6.084;2023-06-22T12:16:31;99253.31;;;25.96;70.26
9189;BME280;34313;50.780;6.084;2023-06-22T12:22:22;99238.03;;;25.60;73.21
9189;BME280;34313;50.780;6.084;2023-06-22T12:24:57;99243.78;;;26.28;72.50
9189;BME280;34313;50.780;6.084;2023-06-22T12:27:29;99238.22;;;26.71;70.18
9189;BME280;34313;50.780;6.084;2023-06-22T12:29:56;99238.09;;;26.51;70.62
9189;BME280;34313;50.780;6.084;2023-06-22T12:32:21;99229.31;;;26.77;69.76
9189;BME280;34313;50.780;6.084;2023-06-22T12:34:46;99237.28;;;26.51;69.84
9189;BME280;34313;50.780;6.084;2023-06-22T12:37:12;99224.13;;;26.76;69.25
9189;BME280;34313;50.780;6.084;2023-06-22T12:39:45;99225.25;;;27.08;68.40
9189;BME280;34313;50.780;6.084;2023-06-22T12:42:10;99213.38;;;26.54;69.50
9189;BME280;34313;50.780;6.084;2023-06-22T12:44:40;99213.75;;;26.86;68.39
9189;BME280;34313;50.780;6.084;2023-06-22T12:47:06;99215.28;;;27.02;68.04
9189;BME280;34313;50.780;6.084;2023-06-22T12:49:32;99204.50;;;27.22;67.25
9189;BME280;34313;50.780;6.084;2023-06-22T12:52:00;99204.44;;;26.54;69.44
9189;BME280;34313;50.780;6.084;2023-06-22T12:54:35;99211.03;;;26.10;71.43
9189;BME280;34313;50.780;6.084;2023-06-22T12:57:06;99194.84;;;25.60;73.39
9189;BME280;34313;50.780;6.084;2023-06-22T12:59:34;99215.25;;;25.26;75.63
9189;BME280;34313;50.780;6.084;2023-06-22T13:05:24;99198.09;;;24.31;79.84
9189;BME280;34313;50.780;6.084;2023-06-22T13:07:49;99202.78;;;24.14;81.24
9189;BME280;34313;50.780;6.084;2023-06-22T13:10:24;99171.03;;;23.94;82.31
9189;BME280;34313;50.780;6.084;2023-06-22T13:22:50;99159.31;;;23.03;90.73
9189;BME280;34313;50.780;6.084;2023-06-22T13:25:15;99143.00;;;23.04;91.24
9189;BME280;34313;50.780;6.084;2023-06-22T13:27:44;99160.50;;;23.00;93.04
9189;BME280;34313;50.780;6.084;2023-06-22T13:30:16;99145.38;;;22.76;94.35
9189;BME280;34313;50.780;6.084;2023-06-22T13:33:08;99131.66;;;22.63;95.76
9189;BME280;34313;50.780;6.084;2023-06-22T13:35:34;99146.31;;;22.60;96.40
9189;BME280;34313;50.780;6.084;2023-06-22T13:38:00;99156.31;;;22.66;96.99
9189;BME280;34313;50.780;6.084;2023-06-22T13:40:26;99160.28;;;22.79;96.77
9189;BME280;34313;50.780;6.084;2023-06-22T13:42:51;99122.13;;;22.60;97.27
9189;BME280;34313;50.780;6.084;2023-06-22T13:45:16;99124.28;;;22.34;98.54
9189;BME280;34313;50.780;6.084;2023-06-22T13:51:11;99082.88;;;22.12;100.00
9189;BME280;34313;50.780;6.084;2023-06-22T13:53:40;99096.13;;;22.21;100.00
9189;BME280;34313;50.780;6.084;2023-06-22T13:56:26;99082.22;;;22.18;100.00
9189;BME280;34313;50.780;6.084;2023-06-22T13:58:57;99077.34;;;22.13;100.00
9189;BME280;34313;50.780;6.084;2023-06-22T14:01:23;99073.03;;;22.04;100.00
9189;BME280;34313;50.780;6.084;2023-06-22T14:03:50;99033.00;;;21.86;100.00
9189;BME280;34313;50.780;6.084;2023-06-22T14:06:16;99045.16;;;22.13;100.00
9189;BME280;34313;50.780;6.084;2023-06-22T14:08:41;99041.50;;;22.06;100.00
9189;BME280;34313;50.780;6.084;2023-06-22T14:11:07;99015.88;;;21.95;100.00
9189;BME280;34313;50.780;6.084;2023-06-22T14:13:32;99022.22;;;22.02;100.00
9189;BME280;34313;50.780;6.084;2023-06-22T14:15:58;98990.66;;;21.73;100.00
9189;BME280;34313;50.780;6.084;2023-06-22T14:18:23;99020.44;;;21.86;100.00
9189;BME280;34313;50.780;6.084;2023-06-22T14:20:51;99027.81;;;21.84;100.00
9189;BME280;34313;50.780;6.084;2023-06-22T14:23:28;99016.59;;;21.81;100.00
9189;BME280;34313;50.780;6.084;2023-06-22T14:25:53;99006.34;;;21.84;100.00
9189;BME280;34313;50.780;6.084;2023-06-22T14:28:19;98983.59;;;21.72;100.00
9189;BME280;34313;50.780;6.084;2023-06-22T14:30:44;98984.47;;;21.73;100.00
9189;BME280;34313;50.780;6.084;2023-06-22T14:33:15;98974.41;;;21.66;100.00
9189;BME280;34313;50.780;6.084;2023-06-22T14:35:53;98958.22;;;21.51;100.00
9189;BME280;34313;50.780;6.084;2023-06-22T14:38:19;98958.56;;;21.48;100.00
9189;BME280;34313;50.780;6.084;2023-06-22T14:40:46;98965.94;;;21.38;100.00
9189;BME280;34313;50.780;6.084;2023-06-22T14:43:12;98929.22;;;21.39;100.00
9189;BME280;34313;50.780;6.084;2023-06-22T14:45:38;98916.88;;;21.29;100.00
9189;BME280;34313;50.780;6.084;2023-06-22T14:48:03;98883.41;;;21.25;100.00
9189;BME280;34313;50.780;6.084;2023-06-22T14:50:31;98857.31;;;21.11;100.00
9189;BME280;34313;50.780;6.084;2023-06-22T14:53:00;98864.50;;;21.19;100.00